Pagrindinis puslapis
METAR-TAF:

METAR-TAF

Oro uostai :

Longjyrbienas, Norvegija

platuma: 78-15N, ilguma: 015-28E, Aukštis: 2 m

Dabartinis oras

Ataskaita buvo paskelbta 37 minutes, ne 05:50 UTC
Vėjas 2 kt iš Pietų/Pietvakarių
Temperatūra -15°C
Drėgmė 60%
Slėgis 1004 hPa
Matomumas 10 km arba daugiau
Mažai debesys ne aukštis 2000 ft

METAR: ENSB 100550Z 21002KT 9999 FEW020 M15/M21 Q1004 RMK WIND 1400FT VRB03KT

Laikas: 08:27 (06:27 UTC)

Prognozė

Prognozė galioja nuo 10 metu 06 UTC su 11 metu 06 UTC
Vėjas 9 kt iš Šiaurės/Šiaurės Vakarų
Matomumas 10 km arba daugiau
Mažai debesys ne aukštis 3000 ft
Tapsmas
nuo 10 metu 21 UTC su 10 metu 23 UTC
Vėjas 10 kt iš Rytų/Pietryčių

TAF: ENSB 1006/1106 34009KT 9999 FEW030 BECMG 1021/1023 12010KT

Orai ataskaitas ir orų prognozės (METAR, TAF).

turimą stotys yra geltonos ir raudonos taškus žemėlapyje.

Perkelti pele per norėdami pamatyti stoties vardą.

Tada spustelėkite, norėdami matyti oro stebėjimo ir prognozės.

Norėdami pakeisti žemėlapį: spustelėkite ant žalios mygtukų su juodo kryžiaus žemyn,; žalią mygtuką su brūkšneliu, jei norite nutolinti; arba žalių rodyklių gretimoms žemėlapius.


METAR-TAF: